createdAt,value
2018-04-27T00:00:57.377Z,10.24
2018-04-27T00:01:57.529Z,10.24
2018-04-27T00:02:57.666Z,10.35
2018-04-27T00:03:57.797Z,10.36
2018-04-27T00:04:57.934Z,10.26
2018-04-27T00:05:58.078Z,10.28
2018-04-27T00:06:58.205Z,10.41
2018-04-27T00:07:58.356Z,10.31
2018-04-27T00:08:58.484Z,10.36
2018-04-27T00:09:58.625Z,10.26
2018-04-27T00:10:58.767Z,10.38
2018-04-27T00:11:58.907Z,10.26
2018-04-27T00:12:59.044Z,10.43
2018-04-27T00:13:59.181Z,10.41
2018-04-27T00:14:59.335Z,10.35
2018-04-27T00:15:59.462Z,10.31
2018-04-27T00:16:59.593Z,10.27
2018-04-27T00:17:59.725Z,10.21
2018-04-27T00:18:59.854Z,10.30
2018-04-27T00:20:00.040Z,10.36
2018-04-27T00:21:00.165Z,10.28
2018-04-27T00:22:00.317Z,10.28
2018-04-27T00:23:00.443Z,10.26
2018-04-27T00:24:00.581Z,10.18
2018-04-27T00:25:00.709Z,10.17
2018-04-27T00:26:00.863Z,10.17
2018-04-27T00:27:01.000Z,10.20
2018-04-27T00:28:01.136Z,10.09
2018-04-27T00:29:01.265Z,10.06
2018-04-27T00:30:01.473Z,10.08
2018-04-27T00:31:01.500Z,10.16
2018-04-27T00:32:01.641Z,10.06
2018-04-27T00:33:01.780Z,10.16
2018-04-27T00:34:01.962Z,10.21
2018-04-27T00:35:02.053Z,10.09
2018-04-27T00:36:02.184Z,10.17
2018-04-27T00:37:02.323Z,10.12
2018-04-27T00:38:02.457Z,10.14
2018-04-27T00:39:02.595Z,10.16
2018-04-27T00:40:02.728Z,10.14
2018-04-27T00:41:02.859Z,9.98
2018-04-27T00:42:03.012Z,9.70
2018-04-27T00:43:03.201Z,9.45
2018-04-27T00:44:03.274Z,9.22
2018-04-27T00:45:03.408Z,9.19
2018-04-27T00:46:03.549Z,9.33
2018-04-27T00:47:03.680Z,9.33
2018-04-27T00:48:03.811Z,9.34
2018-04-27T00:49:03.946Z,9.36
2018-04-27T00:50:04.111Z,9.40
2018-04-27T00:51:04.273Z,9.37
2018-04-27T00:52:04.388Z,9.41
2018-04-27T00:53:04.528Z,9.37
2018-04-27T00:54:05.223Z,9.48
2018-04-27T00:55:04.800Z,9.47
2018-04-27T00:56:04.930Z,9.50
2018-04-27T00:57:05.066Z,9.48
2018-04-27T00:58:05.234Z,9.40
2018-04-27T00:59:05.346Z,9.51
2018-04-27T01:00:05.486Z,9.54
2018-04-27T01:01:05.659Z,9.62
2018-04-27T01:02:05.770Z,9.59
2018-04-27T01:03:05.908Z,9.57
2018-04-27T01:04:06.089Z,9.62
2018-04-27T01:05:06.218Z,9.60
2018-04-27T01:06:06.361Z,9.69
2018-04-27T01:07:06.496Z,9.70
2018-04-27T01:08:06.645Z,9.75
2018-04-27T01:09:06.778Z,9.69
2018-04-27T01:10:06.913Z,9.73
2018-04-27T01:11:07.053Z,9.73
2018-04-27T01:12:07.203Z,9.77
2018-04-27T01:13:07.331Z,9.73
2018-04-27T01:14:07.477Z,9.67
2018-04-27T01:15:07.600Z,9.75
2018-04-27T01:16:07.733Z,9.75
2018-04-27T01:17:07.866Z,9.67
2018-04-27T01:18:07.998Z,9.72
2018-04-27T01:19:08.133Z,9.72
2018-04-27T01:20:08.255Z,9.72
2018-04-27T01:21:08.409Z,9.70
2018-04-27T01:22:08.541Z,9.59
2018-04-27T01:23:08.677Z,9.77
2018-04-27T01:24:08.816Z,9.72
2018-04-27T01:25:08.951Z,9.66
2018-04-27T01:26:09.102Z,9.67
2018-04-27T01:27:09.234Z,9.66
2018-04-27T01:28:09.370Z,9.69
2018-04-27T01:29:09.504Z,9.66
2018-04-27T01:30:09.637Z,9.59
2018-04-27T01:31:09.772Z,9.66
2018-04-27T01:32:09.908Z,9.69
2018-04-27T01:33:10.043Z,9.60
2018-04-27T01:34:10.167Z,9.65
2018-04-27T01:35:10.315Z,9.60
2018-04-27T01:36:10.439Z,9.60
2018-04-27T01:37:10.582Z,9.66
2018-04-27T01:38:10.712Z,9.57
2018-04-27T01:39:10.845Z,9.65
2018-04-27T01:40:10.980Z,9.52
2018-04-27T01:41:11.109Z,9.66
2018-04-27T01:42:11.247Z,9.62
2018-04-27T01:43:11.378Z,9.57
2018-04-27T01:44:11.509Z,9.62
2018-04-27T01:45:11.646Z,9.63
2018-04-27T01:46:11.786Z,9.59
2018-04-27T01:47:11.924Z,9.62
2018-04-27T01:48:12.072Z,9.67
2018-04-27T01:49:12.225Z,9.52
2018-04-27T01:50:12.361Z,9.52
2018-04-27T01:51:12.532Z,9.66
2018-04-27T01:52:12.650Z,9.59
2018-04-27T01:53:12.787Z,9.55
2018-04-27T01:54:12.923Z,9.62
2018-04-27T01:55:13.078Z,9.60
2018-04-27T01:56:13.276Z,9.44
2018-04-27T01:57:13.372Z,9.63
2018-04-27T01:58:13.470Z,9.40
2018-04-27T01:59:13.628Z,9.47
2018-04-27T02:00:13.756Z,9.42
2018-04-27T02:01:13.891Z,9.32
2018-04-27T02:02:14.030Z,9.19
2018-04-27T02:03:14.184Z,9.06
2018-04-27T02:04:14.316Z,9.09
2018-04-27T02:05:14.442Z,9.01
2018-04-27T02:06:14.581Z,8.96
2018-04-27T02:07:14.711Z,8.92
2018-04-27T02:08:14.850Z,8.86
2018-04-27T02:09:14.986Z,8.93
2018-04-27T02:10:15.127Z,8.96
2018-04-27T02:11:15.260Z,8.96
2018-04-27T02:12:15.402Z,8.99
2018-04-27T02:13:15.543Z,9.12
2018-04-27T02:14:15.674Z,8.98
2018-04-27T02:15:15.817Z,9.22
2018-04-27T02:16:15.960Z,9.12
2018-04-27T02:17:16.090Z,9.23
2018-04-27T02:18:16.225Z,9.18
2018-04-27T02:19:16.356Z,9.18
2018-04-27T02:20:16.505Z,9.19
2018-04-27T02:21:16.635Z,9.26
2018-04-27T02:22:16.772Z,9.26
2018-04-27T02:23:16.941Z,9.29
2018-04-27T02:24:17.053Z,9.24
2018-04-27T02:25:17.191Z,9.19
2018-04-27T02:26:17.328Z,9.26
2018-04-27T02:27:17.463Z,9.27
2018-04-27T02:28:17.599Z,9.27
2018-04-27T02:29:17.726Z,9.27
2018-04-27T02:30:17.865Z,9.22
2018-04-27T02:31:17.994Z,9.27
2018-04-27T02:32:18.134Z,9.32
2018-04-27T02:33:18.292Z,9.40
2018-04-27T02:34:18.457Z,9.22
2018-04-27T02:35:18.590Z,9.33
2018-04-27T02:36:19.298Z,9.34
2018-04-27T02:37:18.858Z,9.34
2018-04-27T02:38:18.994Z,9.32
2018-04-27T02:39:19.130Z,9.23
2018-04-27T02:40:19.264Z,9.23
2018-04-27T02:41:19.407Z,9.18
2018-04-27T02:42:19.544Z,9.15
2018-04-27T02:43:19.680Z,9.14
2018-04-27T02:44:19.816Z,9.14
2018-04-27T02:45:19.948Z,9.15
2018-04-27T02:46:20.081Z,9.23
2018-04-27T02:47:20.212Z,9.26
2018-04-27T02:48:20.343Z,9.27
2018-04-27T02:49:20.480Z,9.18
2018-04-27T02:50:20.615Z,9.23
2018-04-27T02:51:20.751Z,9.27
2018-04-27T02:52:20.883Z,9.27
2018-04-27T02:53:21.024Z,9.09
2018-04-27T02:54:21.163Z,9.15
2018-04-27T02:55:21.288Z,9.11
2018-04-27T02:56:21.473Z,9.15
2018-04-27T02:57:21.578Z,9.03
2018-04-27T02:58:21.716Z,9.12
2018-04-27T02:59:21.845Z,9.12
2018-04-27T03:00:21.986Z,8.99
2018-04-27T03:01:22.122Z,9.06
2018-04-27T03:02:22.261Z,9.01
2018-04-27T03:03:22.395Z,9.03
2018-04-27T03:04:22.527Z,9.03
2018-04-27T03:05:22.659Z,9.01
2018-04-27T03:06:22.793Z,8.98
2018-04-27T03:07:22.927Z,9.01
2018-04-27T03:08:23.061Z,8.96
2018-04-27T03:09:23.195Z,8.96
2018-04-27T03:10:23.328Z,8.92
2018-04-27T03:11:23.463Z,8.86
2018-04-27T03:12:23.627Z,8.85
2018-04-27T03:13:23.745Z,8.85
2018-04-27T03:14:23.876Z,8.78
2018-04-27T03:15:24.012Z,8.81
2018-04-27T03:16:24.167Z,8.75
2018-04-27T03:17:24.289Z,8.75
2018-04-27T03:18:24.421Z,8.77
2018-04-27T03:19:24.555Z,8.71
2018-04-27T03:20:24.717Z,8.68
2018-04-27T03:21:24.848Z,8.62
2018-04-27T03:22:24.979Z,8.62
2018-04-27T03:23:25.109Z,8.62
2018-04-27T03:24:25.287Z,8.59
2018-04-27T03:25:25.386Z,8.39
2018-04-27T03:26:25.517Z,8.41
2018-04-27T03:27:25.662Z,8.57
2018-04-27T03:28:25.792Z,8.60
2018-04-27T03:29:25.931Z,8.44
2018-04-27T03:30:26.067Z,8.35
2018-04-27T03:31:26.732Z,8.46
2018-04-27T03:32:26.340Z,8.50
2018-04-27T03:33:26.463Z,8.56
2018-04-27T03:34:26.646Z,8.41
2018-04-27T03:35:26.728Z,8.37
2018-04-27T03:36:26.860Z,8.37
2018-04-27T03:37:26.989Z,8.31
2018-04-27T03:38:27.131Z,8.37
2018-04-27T03:39:27.261Z,8.42
2018-04-27T03:40:27.398Z,8.41
2018-04-27T03:41:27.526Z,8.37
2018-04-27T03:42:27.659Z,8.34
2018-04-27T03:43:27.798Z,8.31
2018-04-27T03:44:27.925Z,8.38
2018-04-27T03:45:28.131Z,8.31
2018-04-27T03:46:28.190Z,8.31
2018-04-27T03:47:28.328Z,8.34
2018-04-27T03:48:28.476Z,8.37
2018-04-27T03:49:28.610Z,8.46
2018-04-27T03:50:28.739Z,8.38
2018-04-27T03:51:28.876Z,8.50
2018-04-27T03:52:29.011Z,8.47
2018-04-27T03:53:29.139Z,8.49
2018-04-27T03:54:29.278Z,8.49
2018-04-27T03:55:29.408Z,8.47
2018-04-27T03:56:29.539Z,8.49
2018-04-27T03:57:29.677Z,8.44
2018-04-27T03:58:29.827Z,8.37
2018-04-27T03:59:29.957Z,8.41
2018-04-27T04:00:30.090Z,8.38
2018-04-27T04:01:30.227Z,8.34
2018-04-27T04:02:30.381Z,8.41
2018-04-27T04:03:30.518Z,8.38
2018-04-27T04:04:30.645Z,8.37
2018-04-27T04:05:30.784Z,8.46
2018-04-27T04:06:30.905Z,8.46
2018-04-27T04:07:31.039Z,8.50
2018-04-27T04:08:31.173Z,8.44
2018-04-27T04:09:31.302Z,8.49
2018-04-27T04:10:31.459Z,8.52
2018-04-27T04:11:31.590Z,8.44
2018-04-27T04:12:31.722Z,8.47
2018-04-27T04:13:31.855Z,8.47
2018-04-27T04:14:31.978Z,8.49
2018-04-27T04:15:32.107Z,8.55
2018-04-27T04:16:32.250Z,8.53
2018-04-27T04:17:32.389Z,8.47
2018-04-27T04:18:32.534Z,8.53
2018-04-27T04:19:32.669Z,8.63
2018-04-27T04:20:32.813Z,8.62
2018-04-27T04:21:32.941Z,8.55
2018-04-27T04:22:33.099Z,8.60
2018-04-27T04:23:33.228Z,8.39
2018-04-27T04:24:33.359Z,8.37
2018-04-27T04:25:33.497Z,8.37
2018-04-27T04:26:33.654Z,8.39
2018-04-27T04:27:33.778Z,8.38
2018-04-27T04:28:33.909Z,8.47
2018-04-27T04:29:34.039Z,8.39
2018-04-27T04:30:34.193Z,8.34
2018-04-27T04:31:34.336Z,8.37
2018-04-27T04:32:34.464Z,8.39
2018-04-27T04:33:34.599Z,8.31
2018-04-27T04:34:34.729Z,8.37
2018-04-27T04:35:34.865Z,8.29
2018-04-27T04:36:34.996Z,8.34
2018-04-27T04:37:35.133Z,8.26
2018-04-27T04:38:35.268Z,8.31
2018-04-27T04:39:35.404Z,8.28
2018-04-27T04:40:35.541Z,8.32
2018-04-27T04:41:35.683Z,8.26
2018-04-27T04:42:35.820Z,8.32
2018-04-27T04:43:35.945Z,8.38
2018-04-27T04:44:36.079Z,8.39
2018-04-27T04:45:36.217Z,8.41
2018-04-27T04:46:36.351Z,8.47
2018-04-27T04:47:36.477Z,8.53
2018-04-27T04:48:36.612Z,8.59
2018-04-27T04:49:36.752Z,8.55
2018-04-27T04:50:36.889Z,8.57
2018-04-27T04:51:37.020Z,8.68
2018-04-27T04:52:37.234Z,8.60
2018-04-27T04:53:37.310Z,8.68
2018-04-27T04:54:37.426Z,8.75
2018-04-27T04:55:37.552Z,8.72
2018-04-27T04:56:37.688Z,8.74
2018-04-27T04:57:37.822Z,8.81
2018-04-27T04:58:37.957Z,8.83
2018-04-27T04:59:38.091Z,8.83
2018-04-27T05:00:38.241Z,8.96
2018-04-27T05:01:38.373Z,8.96
2018-04-27T05:02:38.515Z,8.92
2018-04-27T05:03:38.638Z,8.96
2018-04-27T05:04:38.778Z,8.98
2018-04-27T05:05:38.892Z,9.04
2018-04-27T05:06:39.031Z,9.01
2018-04-27T05:07:39.165Z,9.01
2018-04-27T05:08:39.314Z,9.11
2018-04-27T05:09:39.447Z,9.09
2018-04-27T05:10:39.648Z,9.18
2018-04-27T05:11:39.740Z,9.09
2018-04-27T05:12:39.872Z,9.15
2018-04-27T05:13:40.009Z,9.19
2018-04-27T05:14:40.144Z,9.22
2018-04-27T05:15:40.306Z,9.18
2018-04-27T05:16:40.435Z,9.26
2018-04-27T05:17:40.573Z,9.19
2018-04-27T05:18:40.719Z,9.19
2018-04-27T05:19:40.852Z,9.24
2018-04-27T05:20:40.996Z,9.24
2018-04-27T05:21:41.123Z,9.27
2018-04-27T05:22:41.275Z,9.22
2018-04-27T05:23:41.404Z,9.26
2018-04-27T05:24:41.533Z,9.26
2018-04-27T05:25:41.678Z,9.09
2018-04-27T05:26:41.825Z,9.16
2018-04-27T05:27:41.957Z,9.15
2018-04-27T05:28:42.089Z,9.14
2018-04-27T05:29:42.298Z,9.11
2018-04-27T05:30:42.364Z,9.08
2018-04-27T05:31:42.501Z,9.11
2018-04-27T05:32:42.633Z,9.15
2018-04-27T05:33:42.771Z,9.18
2018-04-27T05:34:42.903Z,9.22
2018-04-27T05:35:43.035Z,9.18
2018-04-27T05:36:43.165Z,9.18
2018-04-27T05:37:43.299Z,8.99
2018-04-27T05:38:43.433Z,9.01
2018-04-27T05:39:43.568Z,9.04
2018-04-27T05:40:43.700Z,9.01
2018-04-27T05:41:43.835Z,9.14
2018-04-27T05:42:43.971Z,9.14
2018-04-27T05:43:44.107Z,9.11
2018-04-27T05:44:44.236Z,9.23
2018-04-27T05:45:44.375Z,9.11
2018-04-27T05:46:44.498Z,9.14
2018-04-27T05:47:44.648Z,9.11
2018-04-27T05:48:44.775Z,9.11
2018-04-27T05:49:44.917Z,9.12
2018-04-27T05:50:45.055Z,9.19
2018-04-27T05:51:45.196Z,9.18
2018-04-27T05:52:45.330Z,9.12
2018-04-27T05:53:45.466Z,9.09
2018-04-27T05:54:45.593Z,9.16
2018-04-27T05:55:45.725Z,9.22
2018-04-27T05:56:45.863Z,9.29
2018-04-27T05:57:46.001Z,9.26
2018-04-27T05:58:46.131Z,9.22
2018-04-27T05:59:46.268Z,9.32
2018-04-27T06:00:46.397Z,9.23
2018-04-27T06:01:46.526Z,9.23
2018-04-27T06:02:46.669Z,9.22
2018-04-27T06:03:46.857Z,9.19
2018-04-27T06:04:46.989Z,9.27
2018-04-27T06:05:47.137Z,9.24
2018-04-27T06:06:47.267Z,9.42
2018-04-27T06:07:47.415Z,9.41
2018-04-27T06:08:47.539Z,9.47
2018-04-27T06:09:47.678Z,9.47
2018-04-27T06:10:47.812Z,9.59
2018-04-27T06:11:47.965Z,9.55
2018-04-27T06:12:48.079Z,9.55
2018-04-27T06:13:48.214Z,9.69
2018-04-27T06:14:48.353Z,9.69
2018-04-27T06:15:48.527Z,9.77
2018-04-27T06:16:48.644Z,9.94
2018-04-27T06:17:48.773Z,10.02
2018-04-27T06:18:48.915Z,10.01
2018-04-27T06:19:49.164Z,10.09
2018-04-27T06:20:49.206Z,10.12
2018-04-27T06:21:49.338Z,10.08
2018-04-27T06:22:49.475Z,10.20
2018-04-27T06:23:49.613Z,10.10
2018-04-27T06:24:49.749Z,10.12
2018-04-27T06:25:49.893Z,10.12
2018-04-27T06:26:50.026Z,10.18
2018-04-27T06:27:50.180Z,10.16
2018-04-27T06:28:51.264Z,10.14
2018-04-27T06:29:50.426Z,10.18
2018-04-27T06:30:50.591Z,10.17
2018-04-27T06:31:50.755Z,10.17
2018-04-27T06:32:50.839Z,10.27
2018-04-27T06:33:50.979Z,10.24
2018-04-27T06:34:51.136Z,10.23
2018-04-27T06:35:51.265Z,10.23
2018-04-27T06:36:51.396Z,10.30
2018-04-27T06:37:51.559Z,10.38
2018-04-27T06:38:51.694Z,10.34
2018-04-27T06:39:51.828Z,10.24
2018-04-27T06:40:52.016Z,10.34
2018-04-27T06:41:52.095Z,10.41
2018-04-27T06:42:52.229Z,10.35
2018-04-27T06:43:52.369Z,10.45
2018-04-27T06:44:52.516Z,10.38
2018-04-27T06:45:52.649Z,10.30
2018-04-27T06:46:52.823Z,10.43
2018-04-27T06:47:52.924Z,10.38
2018-04-27T06:48:53.047Z,10.48
2018-04-27T06:49:53.180Z,10.43
2018-04-27T06:50:53.315Z,10.45
2018-04-27T06:51:53.453Z,10.41
2018-04-27T06:52:53.587Z,10.46
2018-04-27T06:53:53.728Z,10.60
2018-04-27T06:54:53.853Z,10.52
2018-04-27T06:55:53.988Z,10.57
2018-04-27T06:56:54.123Z,10.62
2018-04-27T06:57:54.768Z,10.68
2018-04-27T06:58:54.392Z,10.62
2018-04-27T06:59:54.538Z,10.78
2018-04-27T07:00:54.676Z,10.79
2018-04-27T07:01:54.838Z,10.86
2018-04-27T07:02:54.971Z,10.91
2018-04-27T07:03:55.112Z,10.90
2018-04-27T07:04:55.243Z,10.95
2018-04-27T07:05:55.375Z,11.01
2018-04-27T07:06:55.621Z,11.04
2018-04-27T07:07:55.651Z,11.01
2018-04-27T07:08:55.785Z,11.09
2018-04-27T07:09:55.918Z,11.15
2018-04-27T07:10:56.064Z,11.09
2018-04-27T07:11:56.200Z,11.19
2018-04-27T07:12:56.339Z,11.23
2018-04-27T07:13:56.472Z,11.25
2018-04-27T07:14:56.607Z,11.31
2018-04-27T07:15:56.764Z,11.23
2018-04-27T07:16:56.919Z,11.27
2018-04-27T07:17:57.028Z,11.30
2018-04-27T07:18:57.168Z,11.37
2018-04-27T07:19:57.306Z,11.40
2018-04-27T07:20:57.443Z,11.41
2018-04-27T07:21:57.572Z,11.49
2018-04-27T07:22:57.709Z,11.45
2018-04-27T07:23:57.848Z,11.56
2018-04-27T07:24:57.977Z,11.52
2018-04-27T07:25:58.159Z,11.46
2018-04-27T07:26:58.250Z,11.30
2018-04-27T07:27:58.390Z,11.25
2018-04-27T07:28:58.532Z,11.28
2018-04-27T07:29:58.680Z,11.19
2018-04-27T07:30:58.816Z,11.31
2018-04-27T07:31:59.024Z,11.38
2018-04-27T07:32:59.141Z,11.37
2018-04-27T07:33:59.268Z,11.41
2018-04-27T07:34:59.409Z,11.51
2018-04-27T07:35:59.544Z,11.67
2018-04-27T07:36:59.680Z,11.58
2018-04-27T07:37:59.853Z,11.77
2018-04-27T07:39:00.011Z,11.71
2018-04-27T07:40:00.143Z,11.84
2018-04-27T07:41:00.361Z,11.88
2018-04-27T07:42:00.498Z,11.91
2018-04-27T07:43:00.512Z,12.05
2018-04-27T07:44:00.648Z,12.03
2018-04-27T07:45:00.804Z,12.14
2018-04-27T07:46:00.934Z,12.23
2018-04-27T07:47:01.068Z,12.26
2018-04-27T07:48:01.206Z,12.28
2018-04-27T07:49:01.360Z,12.25
2018-04-27T07:50:01.484Z,12.26
2018-04-27T07:51:01.620Z,12.36
2018-04-27T07:52:01.760Z,12.40
2018-04-27T07:53:01.929Z,12.47
2018-04-27T07:54:02.049Z,12.46
2018-04-27T07:55:02.187Z,12.44
2018-04-27T07:56:02.319Z,12.30
2018-04-27T07:57:02.499Z,12.40
2018-04-27T07:58:02.604Z,12.48
2018-04-27T07:59:02.749Z,12.59
2018-04-27T08:00:02.885Z,12.66
2018-04-27T08:01:03.021Z,12.69
2018-04-27T08:02:03.161Z,12.69
2018-04-27T08:03:03.294Z,12.72
2018-04-27T08:04:03.432Z,12.90
2018-04-27T08:05:03.572Z,12.86
2018-04-27T08:06:03.706Z,12.88
2018-04-27T08:07:03.839Z,12.83
2018-04-27T08:08:03.981Z,12.88
2018-04-27T08:09:04.113Z,12.98
2018-04-27T08:10:04.259Z,12.98
2018-04-27T08:11:04.405Z,13.05
2018-04-27T08:12:04.546Z,13.13
2018-04-27T08:13:04.689Z,13.13
2018-04-27T08:14:05.779Z,13.13
2018-04-27T08:15:04.948Z,13.38
2018-04-27T08:16:05.085Z,13.30
2018-04-27T08:17:05.220Z,13.39
2018-04-27T08:18:05.362Z,13.38
2018-04-27T08:19:05.499Z,13.49
2018-04-27T08:20:05.637Z,13.47
2018-04-27T08:21:05.785Z,13.58
2018-04-27T08:22:05.923Z,13.58
2018-04-27T08:23:06.055Z,13.61
2018-04-27T08:24:06.195Z,13.58
2018-04-27T08:25:06.323Z,13.63
2018-04-27T08:26:06.464Z,13.67
2018-04-27T08:27:06.609Z,13.78
2018-04-27T08:28:06.755Z,13.79
2018-04-27T08:29:06.893Z,13.86
2018-04-27T08:30:07.025Z,13.82
2018-04-27T08:31:07.163Z,13.86
2018-04-27T08:32:07.305Z,13.90
2018-04-27T08:33:07.447Z,13.88
2018-04-27T08:34:07.583Z,14.00
2018-04-27T08:35:07.727Z,14.00
2018-04-27T08:36:07.898Z,14.00
2018-04-27T08:37:08.015Z,14.05
2018-04-27T08:38:08.152Z,14.01
2018-04-27T08:39:08.300Z,14.04
2018-04-27T08:40:08.527Z,14.09
2018-04-27T08:41:08.575Z,14.00
2018-04-27T08:42:08.709Z,13.93
2018-04-27T08:43:08.856Z,14.13
2018-04-27T08:44:09.021Z,14.22
2018-04-27T08:45:09.155Z,14.09
2018-04-27T08:46:09.291Z,14.21
2018-04-27T08:47:09.435Z,14.26
2018-04-27T08:48:09.578Z,14.22
2018-04-27T08:49:09.704Z,14.37
2018-04-27T08:50:09.861Z,14.34
2018-04-27T08:51:10.018Z,14.46
2018-04-27T08:52:10.150Z,14.46
2018-04-27T08:53:10.282Z,14.52
2018-04-27T08:54:10.428Z,14.55
2018-04-27T08:55:10.767Z,14.45
2018-04-27T08:56:10.721Z,14.53
2018-04-27T08:57:10.856Z,14.58
2018-04-27T08:58:11.016Z,14.55
2018-04-27T08:59:11.154Z,14.55
2018-04-27T09:00:11.295Z,14.53
2018-04-27T09:01:11.428Z,14.64
2018-04-27T09:02:11.581Z,14.70
2018-04-27T09:03:11.714Z,14.55
2018-04-27T09:04:11.857Z,14.71
2018-04-27T09:05:11.996Z,14.77
2018-04-27T09:06:12.129Z,14.79
2018-04-27T09:07:12.806Z,14.82
2018-04-27T09:09:44.964Z,14.83
2018-04-27T09:10:45.099Z,14.96
2018-04-27T09:11:45.245Z,14.90
2018-04-27T09:12:45.377Z,14.86
2018-04-27T09:13:45.518Z,14.66
2018-04-27T09:14:45.657Z,14.70
2018-04-27T09:15:45.797Z,14.83
2018-04-27T09:16:45.936Z,14.95
2018-04-27T09:17:46.074Z,14.95
2018-04-27T09:18:46.213Z,14.90
2018-04-27T09:19:46.348Z,15.03
2018-04-27T09:20:46.487Z,14.96
2018-04-27T09:21:46.625Z,14.83
2018-04-27T09:22:46.768Z,14.79
2018-04-27T09:23:46.899Z,14.79
2018-04-27T09:24:47.036Z,14.82
2018-04-27T09:25:47.179Z,14.92
2018-04-27T09:26:47.328Z,15.03
2018-04-27T09:27:47.464Z,14.93
2018-04-27T09:28:47.607Z,15.05
2018-04-27T09:29:47.739Z,15.05
2018-04-27T09:30:47.881Z,15.23
2018-04-27T09:31:48.035Z,15.27
2018-04-27T09:32:48.162Z,15.33
2018-04-27T09:33:48.304Z,15.35
2018-04-27T09:34:48.521Z,15.48
2018-04-27T09:35:48.533Z,15.45
2018-04-27T09:36:48.673Z,15.50
2018-04-27T09:37:48.814Z,15.60
2018-04-27T09:38:48.952Z,15.78
2018-04-27T09:39:49.092Z,15.73
2018-04-27T09:40:49.233Z,15.70
2018-04-27T09:41:49.371Z,15.78
2018-04-27T09:42:49.508Z,15.80
2018-04-27T09:43:49.687Z,15.91
2018-04-27T09:44:49.828Z,15.93
2018-04-27T09:45:49.959Z,16.00
2018-04-27T09:46:50.113Z,16.02
2018-04-27T09:47:50.266Z,15.73
2018-04-27T09:48:50.385Z,15.51
2018-04-27T09:49:50.527Z,15.44
2018-04-27T09:50:50.826Z,15.43
2018-04-27T09:51:50.825Z,15.52
2018-04-27T09:52:50.961Z,15.65
2018-04-27T09:53:51.098Z,15.72
2018-04-27T09:54:51.267Z,15.72
2018-04-27T09:55:51.415Z,15.70
2018-04-27T09:56:51.553Z,15.62
2018-04-27T09:57:51.690Z,15.81
2018-04-27T09:58:51.847Z,15.73
2018-04-27T09:59:51.993Z,15.85
2018-04-27T10:00:52.135Z,15.88
2018-04-27T10:01:52.271Z,15.84
2018-04-27T10:02:52.403Z,15.58
2018-04-27T10:03:52.541Z,15.40
2018-04-27T10:04:52.674Z,15.41
2018-04-27T10:05:52.817Z,15.33
2018-04-27T10:06:53.253Z,15.41
2018-04-27T10:07:53.271Z,15.50
2018-04-27T10:08:53.291Z,15.51
2018-04-27T10:09:53.431Z,15.54
2018-04-27T10:10:53.585Z,15.66
2018-04-27T10:11:53.719Z,15.68
2018-04-27T10:12:53.859Z,15.88
2018-04-27T10:13:53.998Z,15.87
2018-04-27T10:14:54.148Z,15.62
2018-04-27T10:15:54.283Z,15.59
2018-04-27T10:16:54.428Z,15.81
2018-04-27T10:17:54.564Z,15.78
2018-04-27T10:18:54.726Z,15.85
2018-04-27T10:19:54.861Z,15.90
2018-04-27T10:20:54.995Z,15.76
2018-04-27T10:21:55.137Z,15.98
2018-04-27T10:22:55.277Z,16.06
2018-04-27T10:23:55.415Z,16.03
2018-04-27T10:24:55.555Z,16.24
2018-04-27T10:25:55.698Z,16.29
2018-04-27T10:26:55.835Z,16.16
2018-04-27T10:27:55.979Z,16.25
2018-04-27T10:28:56.124Z,16.32
2018-04-27T10:29:56.261Z,16.39
2018-04-27T10:30:56.485Z,16.55
2018-04-27T10:31:56.556Z,16.61
2018-04-27T10:32:56.704Z,16.51
2018-04-27T10:33:56.866Z,16.39
2018-04-27T10:34:57.008Z,16.22
2018-04-27T10:35:57.138Z,16.16
2018-04-27T10:36:57.275Z,16.00
2018-04-27T10:37:57.416Z,15.95
2018-04-27T10:38:57.557Z,15.85
2018-04-27T10:39:57.694Z,15.91
2018-04-27T10:40:57.834Z,15.96
2018-04-27T10:41:57.972Z,16.06
2018-04-27T10:42:58.141Z,16.13
2018-04-27T10:43:58.254Z,16.21
2018-04-27T10:44:58.394Z,16.28
2018-04-27T10:45:58.535Z,16.26
2018-04-27T10:46:58.681Z,16.22
2018-04-27T10:47:58.820Z,16.36
2018-04-27T10:48:58.970Z,16.52
2018-04-27T10:49:59.113Z,16.51
2018-04-27T10:50:59.245Z,16.73
2018-04-27T10:51:59.387Z,16.82
2018-04-27T10:52:59.526Z,16.91
2018-04-27T10:53:59.695Z,16.82
2018-04-27T10:54:59.811Z,16.70
2018-04-27T10:55:59.967Z,16.69
2018-04-27T10:57:00.104Z,16.69
2018-04-27T10:58:00.239Z,16.44
2018-04-27T10:59:00.385Z,16.54
2018-04-27T11:00:00.530Z,16.54
2018-04-27T11:01:00.711Z,16.92
2018-04-27T11:02:00.820Z,16.83
2018-04-27T11:03:00.956Z,17.07
2018-04-27T11:04:01.093Z,16.97
2018-04-27T11:05:01.263Z,17.19
2018-04-27T11:06:01.400Z,17.31
2018-04-27T11:07:01.534Z,17.31
2018-04-27T11:08:01.696Z,17.46
2018-04-27T11:09:01.827Z,17.91
2018-04-27T11:10:01.969Z,18.01
2018-04-27T11:11:02.161Z,17.72
2018-04-27T11:12:02.250Z,17.83
2018-04-27T11:13:02.396Z,18.09
2018-04-27T11:14:02.537Z,18.11
2018-04-27T11:15:02.675Z,18.03
2018-04-27T11:16:02.824Z,17.88
2018-04-27T11:17:02.971Z,18.03
2018-04-27T11:18:03.105Z,18.05
2018-04-27T11:19:03.240Z,18.39
2018-04-27T11:20:03.427Z,18.54
2018-04-27T11:21:03.560Z,18.51
2018-04-27T11:22:03.711Z,18.57
2018-04-27T11:23:03.874Z,18.61
2018-04-27T11:24:04.012Z,18.79
2018-04-27T11:25:04.160Z,18.97
2018-04-27T11:26:04.364Z,19.27
2018-04-27T11:27:04.470Z,19.47
2018-04-27T11:28:04.611Z,19.84
2018-04-27T11:29:04.755Z,19.50
2018-04-27T11:30:04.890Z,19.27
2018-04-27T11:31:05.029Z,19.22
2018-04-27T11:32:05.201Z,19.27
2018-04-27T11:33:05.341Z,18.97
2018-04-27T11:34:05.490Z,19.08
2018-04-27T11:35:05.633Z,19.07
2018-04-27T11:36:05.775Z,18.94
2018-04-27T11:37:05.913Z,19.13
2018-04-27T11:38:06.050Z,18.94
2018-04-27T11:39:06.196Z,19.20
2018-04-27T11:40:06.343Z,18.98
2018-04-27T11:41:06.482Z,19.20
2018-04-27T11:42:06.624Z,19.42
2018-04-27T11:43:06.765Z,19.37
2018-04-27T11:44:06.912Z,19.75
2018-04-27T11:45:07.050Z,19.94
2018-04-27T11:46:07.195Z,20.19
2018-04-27T11:47:07.332Z,20.39
2018-04-27T11:48:07.467Z,20.26
2018-04-27T11:49:07.608Z,20.55
2018-04-27T11:50:07.750Z,20.39
2018-04-27T11:51:07.888Z,20.50
2018-04-27T11:52:08.031Z,20.42
2018-04-27T11:53:08.172Z,20.36
2018-04-27T11:54:08.337Z,20.64
2018-04-27T11:55:08.472Z,20.83
2018-04-27T11:56:08.632Z,20.68
2018-04-27T11:57:08.777Z,20.64
2018-04-27T11:58:08.914Z,20.67
2018-04-27T11:59:09.063Z,20.70
2018-04-27T12:00:09.224Z,20.89
2018-04-27T12:01:09.358Z,20.70
2018-04-27T12:02:09.497Z,20.41
2018-04-27T12:03:09.651Z,20.37
2018-04-27T12:04:09.791Z,20.65
2018-04-27T12:05:09.928Z,20.67
2018-04-27T12:06:10.083Z,20.34
2018-04-27T12:07:10.342Z,20.08
2018-04-27T12:08:10.362Z,20.53
2018-04-27T12:09:10.555Z,20.50
2018-04-27T12:10:10.691Z,20.71
2018-04-27T12:11:10.901Z,20.67
2018-04-27T12:12:10.997Z,20.49
2018-04-27T12:13:11.145Z,20.48
2018-04-27T12:14:11.294Z,20.30
2018-04-27T12:15:11.432Z,20.08
2018-04-27T12:16:11.575Z,20.19
2018-04-27T12:17:11.724Z,20.30
2018-04-27T12:18:11.878Z,20.50
2018-04-27T12:19:12.018Z,20.33
2018-04-27T12:20:12.164Z,20.26
2018-04-27T12:21:12.324Z,20.39
2018-04-27T12:22:12.467Z,20.34
2018-04-27T12:23:12.605Z,20.15
2018-04-27T12:24:12.798Z,19.47
2018-04-27T12:25:12.905Z,19.23
2018-04-27T12:26:13.054Z,19.52
2018-04-27T12:27:13.201Z,19.70
2018-04-27T12:28:13.347Z,19.96
2018-04-27T12:29:13.487Z,20.17
2018-04-27T12:30:13.627Z,20.41
2018-04-27T12:31:13.822Z,20.50
2018-04-27T12:32:13.923Z,20.56
2018-04-27T12:33:14.067Z,20.53
2018-04-27T12:34:14.211Z,20.29
2018-04-27T12:35:14.357Z,20.30
2018-04-27T12:36:14.550Z,20.41
2018-04-27T12:37:14.575Z,20.63
2018-04-27T12:38:14.720Z,20.70
2018-04-27T12:39:14.901Z,20.85
2018-04-27T12:40:15.062Z,20.97
2018-04-27T12:41:15.202Z,21.07
2018-04-27T12:42:15.349Z,20.89
2018-04-27T12:43:15.480Z,20.55
2018-04-27T12:44:15.631Z,20.23
2018-04-27T12:45:15.772Z,20.00
2018-04-27T12:46:15.917Z,20.23
2018-04-27T12:47:16.056Z,20.23
2018-04-27T12:48:16.188Z,20.08
2018-04-27T12:49:16.387Z,20.07
2018-04-27T12:50:16.525Z,19.94
2018-04-27T12:51:16.674Z,19.72
2018-04-27T12:52:16.855Z,19.63
2018-04-27T12:53:16.954Z,19.62
2018-04-27T12:54:17.146Z,19.52
2018-04-27T12:55:17.285Z,19.84
2018-04-27T12:56:17.431Z,19.93
2018-04-27T12:57:17.568Z,20.00
2018-04-27T12:58:17.746Z,20.18
2018-04-27T12:59:17.884Z,20.26
2018-04-27T13:00:18.020Z,20.49
2018-04-27T13:01:18.174Z,20.36
2018-04-27T13:02:18.401Z,20.46
2018-04-27T13:03:18.464Z,20.07
2018-04-27T13:04:18.601Z,19.82
2018-04-27T13:05:18.746Z,19.70
2018-04-27T13:06:18.990Z,19.82
2018-04-27T13:07:18.992Z,20.02